sensor_id;sensor_type;location;lat;lon;timestamp;pressure;altitude;pressure_sealevel;temperature;humidity
51687;BME280;37774;52.192;4.584;2023-02-22T00:01:09;101980.03;;;5.20;100.00
51687;BME280;37774;52.192;4.584;2023-02-22T00:03:49;101563.53;;;2.98;100.00
51687;BME280;37774;52.192;4.584;2023-02-22T00:06:18;102045.72;;;5.84;100.00
51687;BME280;37774;52.192;4.584;2023-02-22T00:08:47;102057.66;;;5.81;100.00
51687;BME280;37774;52.192;4.584;2023-02-22T00:11:15;102052.19;;;5.72;100.00
51687;BME280;37774;52.192;4.584;2023-02-22T00:13:42;102006.53;;;5.16;100.00
51687;BME280;37774;52.192;4.584;2023-02-22T00:16:13;101575.81;;;2.82;100.00
51687;BME280;37774;52.192;4.584;2023-02-22T00:18:40;102094.13;;;5.66;100.00
51687;BME280;37774;52.192;4.584;2023-02-22T00:21:09;101954.47;;;4.99;100.00
51687;BME280;37774;52.192;4.584;2023-02-22T00:23:40;101818.56;;;4.14;100.00
51687;BME280;37774;52.192;4.584;2023-02-22T00:26:13;101872.03;;;4.47;100.00
51687;BME280;37774;52.192;4.584;2023-02-22T00:28:44;101838.66;;;4.24;100.00
51687;BME280;37774;52.192;4.584;2023-02-22T00:31:11;101842.22;;;4.28;100.00
51687;BME280;37774;52.192;4.584;2023-02-22T00:33:39;101674.91;;;3.24;100.00
51687;BME280;37774;52.192;4.584;2023-02-22T00:36:07;101603.34;;;2.86;100.00
51687;BME280;37774;52.192;4.584;2023-02-22T00:38:35;102092.44;;;5.66;100.00
51687;BME280;37774;52.192;4.584;2023-02-22T00:41:02;102116.72;;;5.73;100.00
51687;BME280;37774;52.192;4.584;2023-02-22T00:43:30;102043.97;;;5.56;100.00
51687;BME280;37774;52.192;4.584;2023-02-22T00:45:57;102021.38;;;5.49;100.00
51687;BME280;37774;52.192;4.584;2023-02-22T00:48:24;102076.06;;;5.66;100.00
51687;BME280;37774;52.192;4.584;2023-02-22T00:50:51;101742.47;;;3.70;100.00
51687;BME280;37774;52.192;4.584;2023-02-22T00:53:20;102054.19;;;5.53;100.00
51687;BME280;37774;52.192;4.584;2023-02-22T00:55:48;102045.41;;;5.48;100.00
51687;BME280;37774;52.192;4.584;2023-02-22T00:58:15;102054.84;;;5.47;100.00
51687;BME280;37774;52.192;4.584;2023-02-22T01:00:44;101650.28;;;3.06;100.00
51687;BME280;37774;52.192;4.584;2023-02-22T01:03:14;101761.41;;;3.48;100.00
51687;BME280;37774;52.192;4.584;2023-02-22T01:05:41;101775.16;;;3.26;100.00
51687;BME280;37774;52.192;4.584;2023-02-22T01:08:10;102066.19;;;5.26;100.00
51687;BME280;37774;52.192;4.584;2023-02-22T01:10:38;101952.34;;;4.62;100.00
51687;BME280;37774;52.192;4.584;2023-02-22T01:13:06;102099.69;;;5.26;100.00
51687;BME280;37774;52.192;4.584;2023-02-22T01:15:38;101695.38;;;2.54;100.00
51687;BME280;37774;52.192;4.584;2023-02-22T01:18:08;102080.81;;;5.02;100.00
51687;BME280;37774;52.192;4.584;2023-02-22T01:20:37;102113.94;;;5.17;100.00
51687;BME280;37774;52.192;4.584;2023-02-22T01:23:05;102116.63;;;5.20;100.00
51687;BME280;37774;52.192;4.584;2023-02-22T01:25:33;101934.47;;;4.17;100.00
51687;BME280;37774;52.192;4.584;2023-02-22T01:28:01;102156.41;;;5.26;100.00
51687;BME280;37774;52.192;4.584;2023-02-22T01:30:31;101886.25;;;3.88;100.00
51687;BME280;37774;52.192;4.584;2023-02-22T01:32:59;102044.03;;;4.81;100.00
51687;BME280;37774;52.192;4.584;2023-02-22T01:35:30;101689.94;;;2.68;100.00
51687;BME280;37774;52.192;4.584;2023-02-22T01:37:58;102108.19;;;5.24;100.00
51687;BME280;37774;52.192;4.584;2023-02-22T01:40:30;101668.56;;;2.46;100.00
51687;BME280;37774;52.192;4.584;2023-02-22T01:42:59;101886.47;;;3.94;100.00
51687;BME280;37774;52.192;4.584;2023-02-22T01:45:47;102097.41;;;5.10;100.00
51687;BME280;37774;52.192;4.584;2023-02-22T01:48:19;101881.13;;;3.65;100.00
51687;BME280;37774;52.192;4.584;2023-02-22T01:50:53;101659.94;;;2.44;100.00
51687;BME280;37774;52.192;4.584;2023-02-22T01:53:23;102073.28;;;5.08;100.00
51687;BME280;37774;52.192;4.584;2023-02-22T01:55:52;101651.03;;;2.57;100.00
51687;BME280;37774;52.192;4.584;2023-02-22T01:58:23;101468.94;;;1.23;100.00
51687;BME280;37774;52.192;4.584;2023-02-22T02:00:51;101961.47;;;4.28;100.00
51687;BME280;37774;52.192;4.584;2023-02-22T02:03:21;102040.47;;;4.78;100.00
51687;BME280;37774;52.192;4.584;2023-02-22T02:05:55;102053.56;;;4.84;100.00
51687;BME280;37774;52.192;4.584;2023-02-22T02:08:30;101904.81;;;3.79;100.00
51687;BME280;37774;52.192;4.584;2023-02-22T02:11:02;101903.84;;;4.00;100.00
51687;BME280;37774;52.192;4.584;2023-02-22T02:13:29;101946.44;;;4.41;100.00
51687;BME280;37774;52.192;4.584;2023-02-22T02:15:56;101618.63;;;2.38;100.00
51687;BME280;37774;52.192;4.584;2023-02-22T02:18:25;101980.97;;;4.46;100.00
51687;BME280;37774;52.192;4.584;2023-02-22T02:27:10;102009.09;;;4.90;100.00
51687;BME280;37774;52.192;4.584;2023-02-22T02:32:49;101999.53;;;4.86;100.00
51687;BME280;37774;52.192;4.584;2023-02-22T02:35:23;101999.59;;;4.87;100.00
51687;BME280;37774;52.192;4.584;2023-02-22T02:37:57;101966.72;;;4.56;100.00
51687;BME280;37774;52.192;4.584;2023-02-22T02:40:31;101890.59;;;4.14;100.00
51687;BME280;37774;52.192;4.584;2023-02-22T02:43:06;101994.44;;;4.87;100.00
51687;BME280;37774;52.192;4.584;2023-02-22T02:45:38;101424.41;;;1.42;100.00
51687;BME280;37774;52.192;4.584;2023-02-22T02:48:09;101989.00;;;4.79;100.00
51687;BME280;37774;52.192;4.584;2023-02-22T02:50:42;101986.25;;;4.75;100.00
51687;BME280;37774;52.192;4.584;2023-02-22T02:53:12;101985.59;;;4.80;100.00
51687;BME280;37774;52.192;4.584;2023-02-22T02:55:42;101988.28;;;4.83;100.00
51687;BME280;37774;52.192;4.584;2023-02-22T02:58:17;101951.31;;;4.57;100.00
51687;BME280;37774;52.192;4.584;2023-02-22T03:00:44;101463.13;;;1.71;100.00
51687;BME280;37774;52.192;4.584;2023-02-22T03:06:40;101966.13;;;4.63;100.00
51687;BME280;37774;52.192;4.584;2023-02-22T03:09:24;101933.22;;;4.30;100.00
51687;BME280;37774;52.192;4.584;2023-02-22T03:11:58;101962.44;;;4.56;100.00
51687;BME280;37774;52.192;4.584;2023-02-22T03:14:33;101964.28;;;4.60;100.00
51687;BME280;37774;52.192;4.584;2023-02-22T03:17:07;101951.38;;;4.59;100.00
51687;BME280;37774;52.192;4.584;2023-02-22T03:19:44;101948.00;;;4.60;100.00
51687;BME280;37774;52.192;4.584;2023-02-22T03:22:20;101939.66;;;4.43;100.00
51687;BME280;37774;52.192;4.584;2023-02-22T03:24:51;101822.72;;;3.61;100.00
51687;BME280;37774;52.192;4.584;2023-02-22T03:27:22;101654.56;;;2.60;100.00
51687;BME280;37774;52.192;4.584;2023-02-22T03:29:54;101944.38;;;4.30;100.00
51687;BME280;37774;52.192;4.584;2023-02-22T03:32:27;101899.06;;;4.11;100.00
51687;BME280;37774;52.192;4.584;2023-02-22T03:34:58;101836.84;;;3.73;100.00
51687;BME280;37774;52.192;4.584;2023-02-22T03:37:30;101643.91;;;2.50;100.00
51687;BME280;37774;52.192;4.584;2023-02-22T03:39:59;101941.75;;;4.29;100.00
51687;BME280;37774;52.192;4.584;2023-02-22T03:42:39;101936.44;;;4.24;100.00
51687;BME280;37774;52.192;4.584;2023-02-22T03:45:09;101940.00;;;4.28;100.00
51687;BME280;37774;52.192;4.584;2023-02-22T03:47:41;101524.66;;;1.71;100.00
51687;BME280;37774;52.192;4.584;2023-02-22T03:50:11;101821.25;;;3.45;100.00
51687;BME280;37774;52.192;4.584;2023-02-22T03:52:42;101717.47;;;2.72;100.00
51687;BME280;37774;52.192;4.584;2023-02-22T03:55:13;101814.38;;;3.44;100.00
51687;BME280;37774;52.192;4.584;2023-02-22T03:57:45;101928.75;;;4.01;100.00
51687;BME280;37774;52.192;4.584;2023-02-22T04:00:16;101928.34;;;3.90;100.00
51687;BME280;37774;52.192;4.584;2023-02-22T04:02:43;101945.72;;;3.96;100.00
51687;BME280;37774;52.192;4.584;2023-02-22T04:05:10;101684.59;;;2.19;100.00
51687;BME280;37774;52.192;4.584;2023-02-22T04:07:38;101955.06;;;3.94;100.00
51687;BME280;37774;52.192;4.584;2023-02-22T04:10:07;101974.88;;;3.97;100.00
51687;BME280;37774;52.192;4.584;2023-02-22T04:12:34;101964.69;;;4.00;100.00
51687;BME280;37774;52.192;4.584;2023-02-22T04:15:01;101662.91;;;2.11;100.00
51687;BME280;37774;52.192;4.584;2023-02-22T04:17:28;101764.44;;;2.69;100.00
51687;BME280;37774;52.192;4.584;2023-02-22T04:19:55;102022.56;;;3.88;100.00
51687;BME280;37774;52.192;4.584;2023-02-22T04:22:22;101615.03;;;1.48;100.00
51687;BME280;37774;52.192;4.584;2023-02-22T04:24:48;101996.22;;;3.94;100.00
51687;BME280;37774;52.192;4.584;2023-02-22T04:27:17;101883.53;;;3.17;100.00
51687;BME280;37774;52.192;4.584;2023-02-22T04:29:43;101988.66;;;3.76;100.00
51687;BME280;37774;52.192;4.584;2023-02-22T04:32:10;101613.28;;;1.46;100.00
51687;BME280;37774;52.192;4.584;2023-02-22T04:34:37;102028.94;;;3.75;100.00
51687;BME280;37774;52.192;4.584;2023-02-22T04:37:04;101686.47;;;1.81;100.00
51687;BME280;37774;52.192;4.584;2023-02-22T04:39:32;102030.47;;;3.93;100.00
51687;BME280;37774;52.192;4.584;2023-02-22T04:41:59;102013.75;;;3.82;100.00
51687;BME280;37774;52.192;4.584;2023-02-22T04:44:27;102010.75;;;3.71;100.00
51687;BME280;37774;52.192;4.584;2023-02-22T04:46:54;102032.00;;;3.88;100.00
51687;BME280;37774;52.192;4.584;2023-02-22T04:49:22;101511.16;;;0.72;100.00
51687;BME280;37774;52.192;4.584;2023-02-22T04:51:49;101545.75;;;0.84;100.00
51687;BME280;37774;52.192;4.584;2023-02-22T04:54:15;101932.84;;;2.87;100.00
51687;BME280;37774;52.192;4.584;2023-02-22T04:56:43;101636.50;;;1.10;100.00
51687;BME280;37774;52.192;4.584;2023-02-22T04:59:10;102063.06;;;3.71;100.00
51687;BME280;37774;52.192;4.584;2023-02-22T05:01:38;101768.75;;;1.87;100.00
51687;BME280;37774;52.192;4.584;2023-02-22T05:04:06;102014.88;;;3.25;100.00
51687;BME280;37774;52.192;4.584;2023-02-22T05:06:33;101999.34;;;3.21;100.00
51687;BME280;37774;52.192;4.584;2023-02-22T05:09:00;101750.00;;;1.49;100.00
51687;BME280;37774;52.192;4.584;2023-02-22T05:11:27;102101.78;;;3.76;100.00
51687;BME280;37774;52.192;4.584;2023-02-22T05:13:54;101913.03;;;2.63;100.00
51687;BME280;37774;52.192;4.584;2023-02-22T05:16:21;102097.47;;;3.75;100.00
51687;BME280;37774;52.192;4.584;2023-02-22T05:18:49;102105.50;;;3.83;100.00
51687;BME280;37774;52.192;4.584;2023-02-22T05:21:16;102118.50;;;3.86;100.00
51687;BME280;37774;52.192;4.584;2023-02-22T05:23:43;101756.50;;;1.60;100.00
51687;BME280;37774;52.192;4.584;2023-02-22T05:26:10;101637.22;;;0.88;100.00
51687;BME280;37774;52.192;4.584;2023-02-22T05:28:37;101765.19;;;1.64;100.00
51687;BME280;37774;52.192;4.584;2023-02-22T05:31:04;101973.81;;;2.84;100.00
51687;BME280;37774;52.192;4.584;2023-02-22T05:33:32;102107.00;;;3.56;100.00
51687;BME280;37774;52.192;4.584;2023-02-22T05:36:00;102172.50;;;3.86;100.00
51687;BME280;37774;52.192;4.584;2023-02-22T05:38:27;102077.75;;;3.33;100.00
51687;BME280;37774;52.192;4.584;2023-02-22T05:40:54;102126.06;;;3.61;100.00
51687;BME280;37774;52.192;4.584;2023-02-22T05:43:21;101740.94;;;1.17;100.00
51687;BME280;37774;52.192;4.584;2023-02-22T05:45:48;102030.63;;;2.91;100.00
51687;BME280;37774;52.192;4.584;2023-02-22T05:48:15;102221.63;;;3.92;100.00
51687;BME280;37774;52.192;4.584;2023-02-22T05:50:41;102145.16;;;3.68;100.00
51687;BME280;37774;52.192;4.584;2023-02-22T05:53:10;101668.66;;;0.66;100.00
51687;BME280;37774;52.192;4.584;2023-02-22T05:55:37;102173.41;;;3.67;100.00
51687;BME280;37774;52.192;4.584;2023-02-22T05:58:04;102220.69;;;3.90;100.00
51687;BME280;37774;52.192;4.584;2023-02-22T06:00:31;102249.22;;;3.96;100.00
51687;BME280;37774;52.192;4.584;2023-02-22T06:03:00;102261.88;;;3.91;100.00
51687;BME280;37774;52.192;4.584;2023-02-22T06:05:28;102164.97;;;3.30;100.00
51687;BME280;37774;52.192;4.584;2023-02-22T06:07:56;102282.53;;;3.93;100.00
51687;BME280;37774;52.192;4.584;2023-02-22T06:10:25;102233.13;;;3.61;100.00
51687;BME280;37774;52.192;4.584;2023-02-22T06:12:52;102300.13;;;3.84;100.00
51687;BME280;37774;52.192;4.584;2023-02-22T06:15:21;102329.56;;;3.90;100.00
51687;BME280;37774;52.192;4.584;2023-02-22T06:17:48;102177.94;;;2.94;100.00
51687;BME280;37774;52.192;4.584;2023-02-22T06:20:17;102344.25;;;3.93;100.00
51687;BME280;37774;52.192;4.584;2023-02-22T06:22:45;101896.75;;;1.28;100.00
51687;BME280;37774;52.192;4.584;2023-02-22T06:25:15;101891.28;;;1.20;100.00
51687;BME280;37774;52.192;4.584;2023-02-22T06:27:44;102210.06;;;3.03;100.00
51687;BME280;37774;52.192;4.584;2023-02-22T06:30:13;102236.53;;;3.40;100.00
51687;BME280;37774;52.192;4.584;2023-02-22T06:32:41;102040.72;;;2.29;100.00
51687;BME280;37774;52.192;4.584;2023-02-22T06:35:08;102238.34;;;3.23;100.00
51687;BME280;37774;52.192;4.584;2023-02-22T06:37:35;101841.25;;;1.09;100.00
51687;BME280;37774;52.192;4.584;2023-02-22T06:40:03;101861.50;;;1.04;100.00
51687;BME280;37774;52.192;4.584;2023-02-22T06:42:31;102360.25;;;4.05;100.00
51687;BME280;37774;52.192;4.584;2023-02-22T06:44:59;102125.97;;;2.80;100.00
51687;BME280;37774;52.192;4.584;2023-02-22T06:47:26;102079.56;;;2.37;100.00
51687;BME280;37774;52.192;4.584;2023-02-22T06:49:53;102171.16;;;2.76;100.00
51687;BME280;37774;52.192;4.584;2023-02-22T06:52:20;101889.41;;;1.16;100.00
51687;BME280;37774;52.192;4.584;2023-02-22T06:54:47;101993.31;;;1.83;100.00
51687;BME280;37774;52.192;4.584;2023-02-22T06:57:14;102402.34;;;4.07;100.00
51687;BME280;37774;52.192;4.584;2023-02-22T06:59:41;102357.03;;;3.91;100.00
51687;BME280;37774;52.192;4.584;2023-02-22T07:02:10;102015.84;;;1.90;100.00
51687;BME280;37774;52.192;4.584;2023-02-22T07:04:38;102202.75;;;3.13;100.00
51687;BME280;37774;52.192;4.584;2023-02-22T07:07:04;102097.66;;;2.40;100.00
51687;BME280;37774;52.192;4.584;2023-02-22T07:09:31;102328.16;;;3.97;100.00
51687;BME280;37774;52.192;4.584;2023-02-22T07:11:58;102277.31;;;3.91;100.00
51687;BME280;37774;52.192;4.584;2023-02-22T07:14:25;102318.53;;;4.13;100.00
51687;BME280;37774;52.192;4.584;2023-02-22T07:16:52;101979.06;;;2.08;100.00
51687;BME280;37774;52.192;4.584;2023-02-22T07:19:21;102202.84;;;3.34;100.00
51687;BME280;37774;52.192;4.584;2023-02-22T07:21:49;102379.47;;;4.14;100.00
51687;BME280;37774;52.192;4.584;2023-02-22T07:24:22;101988.81;;;2.15;100.00
51687;BME280;37774;52.192;4.584;2023-02-22T07:26:49;102364.28;;;4.20;100.00
51687;BME280;37774;52.192;4.584;2023-02-22T07:29:15;102183.97;;;3.14;100.00
51687;BME280;37774;52.192;4.584;2023-02-22T07:31:42;101933.69;;;1.87;100.00
51687;BME280;37774;52.192;4.584;2023-02-22T07:34:10;102144.56;;;3.13;100.00
51687;BME280;37774;52.192;4.584;2023-02-22T07:36:39;101944.28;;;1.95;100.00
51687;BME280;37774;52.192;4.584;2023-02-22T07:39:06;101745.91;;;0.58;100.00
51687;BME280;37774;52.192;4.584;2023-02-22T07:41:33;101955.22;;;1.91;100.00
51687;BME280;37774;52.192;4.584;2023-02-22T07:44:02;102019.88;;;2.41;100.00
51687;BME280;37774;52.192;4.584;2023-02-22T07:46:29;102273.06;;;3.92;100.00
51687;BME280;37774;52.192;4.584;2023-02-22T07:48:56;102319.06;;;4.05;100.00
51687;BME280;37774;52.192;4.584;2023-02-22T07:51:23;102020.47;;;2.36;100.00
51687;BME280;37774;52.192;4.584;2023-02-22T07:53:51;102085.81;;;2.82;100.00
51687;BME280;37774;52.192;4.584;2023-02-22T07:56:18;102161.41;;;3.26;100.00
51687;BME280;37774;52.192;4.584;2023-02-22T07:58:45;102292.41;;;4.03;100.00
51687;BME280;37774;52.192;4.584;2023-02-22T08:01:12;102178.31;;;3.21;100.00
51687;BME280;37774;52.192;4.584;2023-02-22T08:03:40;102365.06;;;4.38;100.00
51687;BME280;37774;52.192;4.584;2023-02-22T08:06:09;102390.59;;;4.53;100.00
51687;BME280;37774;52.192;4.584;2023-02-22T08:08:36;102159.84;;;3.30;100.00
51687;BME280;37774;52.192;4.584;2023-02-22T08:11:05;102242.75;;;3.85;100.00
51687;BME280;37774;52.192;4.584;2023-02-22T08:13:32;102288.50;;;4.13;100.00
51687;BME280;37774;52.192;4.584;2023-02-22T08:16:00;102342.53;;;4.54;100.00
51687;BME280;37774;52.192;4.584;2023-02-22T08:18:28;102266.13;;;4.11;100.00
51687;BME280;37774;52.192;4.584;2023-02-22T08:20:56;101974.09;;;2.31;100.00
51687;BME280;37774;52.192;4.584;2023-02-22T08:23:24;102250.94;;;4.17;100.00
51687;BME280;37774;52.192;4.584;2023-02-22T08:25:52;102040.28;;;2.77;100.00
51687;BME280;37774;52.192;4.584;2023-02-22T08:28:22;102000.19;;;2.60;100.00
51687;BME280;37774;52.192;4.584;2023-02-22T08:30:50;101794.31;;;1.46;100.00
51687;BME280;37774;52.192;4.584;2023-02-22T08:33:18;102311.28;;;4.66;100.00
51687;BME280;37774;52.192;4.584;2023-02-22T08:35:48;102299.16;;;4.63;100.00
51687;BME280;37774;52.192;4.584;2023-02-22T08:38:18;102279.31;;;4.61;100.00
51687;BME280;37774;52.192;4.584;2023-02-22T08:40:46;102078.25;;;3.45;100.00
51687;BME280;37774;52.192;4.584;2023-02-22T08:43:17;102001.84;;;2.99;100.00
51687;BME280;37774;52.192;4.584;2023-02-22T08:45:46;102058.56;;;3.25;100.00
51687;BME280;37774;52.192;4.584;2023-02-22T08:48:14;102107.97;;;3.60;100.00
51687;BME280;37774;52.192;4.584;2023-02-22T08:50:41;102027.00;;;3.27;100.00
51687;BME280;37774;52.192;4.584;2023-02-22T08:53:09;101878.00;;;2.44;100.00
51687;BME280;37774;52.192;4.584;2023-02-22T08:55:39;101829.09;;;2.00;100.00
51687;BME280;37774;52.192;4.584;2023-02-22T08:58:06;101828.19;;;2.17;100.00
51687;BME280;37774;52.192;4.584;2023-02-22T09:00:35;101843.84;;;2.24;100.00
51687;BME280;37774;52.192;4.584;2023-02-22T09:03:05;101948.03;;;3.02;100.00
51687;BME280;37774;52.192;4.584;2023-02-22T09:05:33;101972.16;;;3.27;100.00
51687;BME280;37774;52.192;4.584;2023-02-22T09:08:01;102092.94;;;3.90;100.00
51687;BME280;37774;52.192;4.584;2023-02-22T09:10:31;102170.16;;;4.34;100.00
51687;BME280;37774;52.192;4.584;2023-02-22T09:12:59;102253.22;;;4.74;100.00
51687;BME280;37774;52.192;4.584;2023-02-22T09:15:30;102111.34;;;4.22;100.00
51687;BME280;37774;52.192;4.584;2023-02-22T09:17:59;102165.66;;;4.51;100.00
51687;BME280;37774;52.192;4.584;2023-02-22T09:20:28;101909.69;;;3.06;100.00
51687;BME280;37774;52.192;4.584;2023-02-22T09:22:56;101998.78;;;3.71;100.00
51687;BME280;37774;52.192;4.584;2023-02-22T09:25:24;102026.59;;;3.82;100.00
51687;BME280;37774;52.192;4.584;2023-02-22T09:27:52;102078.44;;;4.36;100.00
51687;BME280;37774;52.192;4.584;2023-02-22T09:30:23;101790.28;;;2.74;100.00
51687;BME280;37774;52.192;4.584;2023-02-22T09:32:55;101746.47;;;2.48;100.00
51687;BME280;37774;52.192;4.584;2023-02-22T09:35:41;101804.59;;;2.90;100.00
51687;BME280;37774;52.192;4.584;2023-02-22T09:38:13;102085.91;;;4.53;100.00
51687;BME280;37774;52.192;4.584;2023-02-22T09:40:43;102063.59;;;4.76;100.00
51687;BME280;37774;52.192;4.584;2023-02-22T09:43:23;102004.59;;;4.35;100.00
51687;BME280;37774;52.192;4.584;2023-02-22T09:46:07;102254.22;;;5.96;100.00
51687;BME280;37774;52.192;4.584;2023-02-22T09:48:44;102056.84;;;4.80;100.00
51687;BME280;37774;52.192;4.584;2023-02-22T09:51:17;102150.75;;;5.37;100.00
51687;BME280;37774;52.192;4.584;2023-02-22T09:53:48;102226.19;;;6.06;100.00
51687;BME280;37774;52.192;4.584;2023-02-22T09:56:18;102109.56;;;5.38;100.00
51687;BME280;37774;52.192;4.584;2023-02-22T09:58:47;101959.25;;;4.63;100.00
51687;BME280;37774;52.192;4.584;2023-02-22T10:01:23;101739.84;;;3.20;100.00
51687;BME280;37774;52.192;4.584;2023-02-22T10:04:03;101772.72;;;4.02;100.00
51687;BME280;37774;52.192;4.584;2023-02-22T10:06:32;102060.94;;;5.77;100.00
51687;BME280;37774;52.192;4.584;2023-02-22T10:09:02;102119.63;;;6.37;100.00
51687;BME280;37774;52.192;4.584;2023-02-22T10:11:52;102061.84;;;6.34;100.00
51687;BME280;37774;52.192;4.584;2023-02-22T10:14:35;102007.16;;;6.17;100.00
51687;BME280;37774;52.192;4.584;2023-02-22T10:17:11;102026.84;;;6.43;100.00
51687;BME280;37774;52.192;4.584;2023-02-22T10:19:46;101615.97;;;4.06;100.00
51687;BME280;37774;52.192;4.584;2023-02-22T10:22:34;101732.25;;;5.06;100.00
51687;BME280;37774;52.192;4.584;2023-02-22T10:25:09;101844.69;;;5.91;100.00
51687;BME280;37774;52.192;4.584;2023-02-22T10:27:40;101703.00;;;5.34;100.00
51687;BME280;37774;52.192;4.584;2023-02-22T10:30:18;101961.97;;;6.97;100.00
51687;BME280;37774;52.192;4.584;2023-02-22T10:32:51;101567.13;;;4.96;100.00
51687;BME280;37774;52.192;4.584;2023-02-22T10:35:23;101755.75;;;5.78;100.00
51687;BME280;37774;52.192;4.584;2023-02-22T10:37:57;101651.56;;;5.07;100.00
51687;BME280;37774;52.192;4.584;2023-02-22T10:40:25;101639.16;;;4.93;100.00
51687;BME280;37774;52.192;4.584;2023-02-22T10:43:00;101541.53;;;4.42;100.00
51687;BME280;37774;52.192;4.584;2023-02-22T10:45:30;101778.44;;;6.22;100.00
51687;BME280;37774;52.192;4.584;2023-02-22T10:47:59;101748.78;;;5.75;100.00
51687;BME280;37774;52.192;4.584;2023-02-22T10:50:28;101683.16;;;5.64;100.00
51687;BME280;37774;52.192;4.584;2023-02-22T10:52:57;101656.53;;;5.65;100.00
51687;BME280;37774;52.192;4.584;2023-02-22T10:55:24;101773.25;;;6.57;100.00
51687;BME280;37774;52.192;4.584;2023-02-22T10:57:59;101758.03;;;6.69;100.00
51687;BME280;37774;52.192;4.584;2023-02-22T11:00:31;101775.25;;;7.06;100.00
51687;BME280;37774;52.192;4.584;2023-02-22T11:03:03;101649.59;;;6.31;100.00
51687;BME280;37774;52.192;4.584;2023-02-22T11:05:35;101710.56;;;7.03;100.00
51687;BME280;37774;52.192;4.584;2023-02-22T11:08:23;101258.53;;;4.45;100.00
51687;BME280;37774;52.192;4.584;2023-02-22T11:10:53;101471.31;;;5.83;100.00
51687;BME280;37774;52.192;4.584;2023-02-22T11:13:26;101596.47;;;6.84;100.00
51687;BME280;37774;52.192;4.584;2023-02-22T11:15:54;101693.78;;;7.71;100.00
51687;BME280;37774;52.192;4.584;2023-02-22T11:18:24;101472.09;;;6.64;100.00
51687;BME280;37774;52.192;4.584;2023-02-22T11:21:00;101513.25;;;7.00;100.00
51687;BME280;37774;52.192;4.584;2023-02-22T11:23:30;101301.75;;;5.76;100.00
51687;BME280;37774;52.192;4.584;2023-02-22T11:26:05;101444.34;;;7.01;100.00
51687;BME280;37774;52.192;4.584;2023-02-22T11:28:33;101355.56;;;6.47;100.00
51687;BME280;37774;52.192;4.584;2023-02-22T11:31:18;101522.91;;;7.63;100.00
51687;BME280;37774;52.192;4.584;2023-02-22T11:33:52;101435.72;;;7.56;100.00
51687;BME280;37774;52.192;4.584;2023-02-22T11:36:35;101283.38;;;6.51;100.00
51687;BME280;37774;52.192;4.584;2023-02-22T11:39:22;101317.03;;;7.13;100.00
51687;BME280;37774;52.192;4.584;2023-02-22T11:41:54;101499.31;;;8.00;100.00
51687;BME280;37774;52.192;4.584;2023-02-22T11:44:24;101387.09;;;7.31;100.00
51687;BME280;37774;52.192;4.584;2023-02-22T11:46:53;101205.56;;;6.29;100.00
51687;BME280;37774;52.192;4.584;2023-02-22T11:49:23;101516.31;;;8.48;100.00
51687;BME280;37774;52.192;4.584;2023-02-22T11:52:10;101279.94;;;7.11;100.00
51687;BME280;37774;52.192;4.584;2023-02-22T11:54:54;101090.19;;;6.24;100.00
51687;BME280;37774;52.192;4.584;2023-02-22T11:57:36;101130.09;;;6.46;100.00
51687;BME280;37774;52.192;4.584;2023-02-22T12:00:19;101331.06;;;8.01;100.00
51687;BME280;37774;52.192;4.584;2023-02-22T12:03:10;101449.94;;;8.57;100.00
51687;BME280;37774;52.192;4.584;2023-02-22T12:06:13;101435.38;;;8.68;100.00
51687;BME280;37774;52.192;4.584;2023-02-22T12:08:59;101183.38;;;7.03;100.00
51687;BME280;37774;52.192;4.584;2023-02-22T12:11:37;101094.06;;;6.55;100.00
51687;BME280;37774;52.192;4.584;2023-02-22T12:14:15;101380.66;;;8.42;100.00
51687;BME280;37774;52.192;4.584;2023-02-22T12:17:02;101282.56;;;7.85;100.00
51687;BME280;37774;52.192;4.584;2023-02-22T12:19:36;100995.56;;;6.23;100.00
51687;BME280;37774;52.192;4.584;2023-02-22T12:22:08;101398.47;;;8.97;100.00
51687;BME280;37774;52.192;4.584;2023-02-22T12:24:39;101037.34;;;6.63;100.00
51687;BME280;37774;52.192;4.584;2023-02-22T12:27:12;101150.19;;;7.40;100.00
51687;BME280;37774;52.192;4.584;2023-02-22T12:29:45;101164.16;;;7.57;100.00
51687;BME280;37774;52.192;4.584;2023-02-22T12:32:16;100956.13;;;6.36;100.00
51687;BME280;37774;52.192;4.584;2023-02-22T12:34:49;101124.31;;;7.41;100.00
51687;BME280;37774;52.192;4.584;2023-02-22T12:37:21;101153.91;;;7.68;100.00
51687;BME280;37774;52.192;4.584;2023-02-22T12:39:54;101278.94;;;8.54;100.00
51687;BME280;37774;52.192;4.584;2023-02-22T12:42:43;101323.94;;;8.64;100.00
51687;BME280;37774;52.192;4.584;2023-02-22T12:45:19;100925.88;;;6.23;100.00
51687;BME280;37774;52.192;4.584;2023-02-22T12:47:54;101353.66;;;9.08;100.00
51687;BME280;37774;52.192;4.584;2023-02-22T12:50:26;101251.22;;;8.46;100.00
51687;BME280;37774;52.192;4.584;2023-02-22T12:53:03;101047.25;;;7.03;100.00
51687;BME280;37774;52.192;4.584;2023-02-22T12:55:38;101061.81;;;6.93;100.00
51687;BME280;37774;52.192;4.584;2023-02-22T12:58:19;101119.59;;;7.89;100.00
51687;BME280;37774;52.192;4.584;2023-02-22T13:00:54;101069.38;;;7.66;100.00
51687;BME280;37774;52.192;4.584;2023-02-22T13:03:29;101242.56;;;8.44;100.00
51687;BME280;37774;52.192;4.584;2023-02-22T13:06:18;101171.63;;;8.21;100.00
51687;BME280;37774;52.192;4.584;2023-02-22T13:08:58;100903.03;;;6.60;100.00
51687;BME280;37774;52.192;4.584;2023-02-22T13:11:32;101095.03;;;7.41;100.00
51687;BME280;37774;52.192;4.584;2023-02-22T13:14:17;101142.97;;;8.00;100.00
51687;BME280;37774;52.192;4.584;2023-02-22T13:16:51;101005.19;;;7.20;100.00
51687;BME280;37774;52.192;4.584;2023-02-22T13:19:34;101330.53;;;9.53;100.00
51687;BME280;37774;52.192;4.584;2023-02-22T13:22:07;101120.50;;;7.96;100.00